sensor_id;sensor_type;location;lat;lon;timestamp;P1;durP1;ratioP1;P2;durP2;ratioP2
77016;SDS011;65949;53.132;17.930;2024-03-02T00:00:20;60.70;;;27.40;;
77016;SDS011;65949;53.132;17.930;2024-03-02T00:03:08;56.90;;;27.10;;
77016;SDS011;65949;53.132;17.930;2024-03-02T00:05:36;54.50;;;24.90;;
77016;SDS011;65949;53.132;17.930;2024-03-02T00:08:02;56.50;;;23.20;;
77016;SDS011;65949;53.132;17.930;2024-03-02T00:10:35;55.60;;;25.70;;
77016;SDS011;65949;53.132;17.930;2024-03-02T00:13:06;60.80;;;26.80;;
77016;SDS011;65949;53.132;17.930;2024-03-02T00:15:46;61.20;;;27.70;;
77016;SDS011;65949;53.132;17.930;2024-03-02T00:18:14;59.20;;;27.50;;
77016;SDS011;65949;53.132;17.930;2024-03-02T00:20:59;59.60;;;26.40;;
77016;SDS011;65949;53.132;17.930;2024-03-02T00:23:29;57.70;;;26.40;;
77016;SDS011;65949;53.132;17.930;2024-03-02T00:25:57;59.40;;;28.60;;
77016;SDS011;65949;53.132;17.930;2024-03-02T00:31:03;59.60;;;26.50;;
77016;SDS011;65949;53.132;17.930;2024-03-02T00:33:32;58.90;;;26.80;;
77016;SDS011;65949;53.132;17.930;2024-03-02T00:36:04;62.40;;;27.00;;
77016;SDS011;65949;53.132;17.930;2024-03-02T00:38:33;58.20;;;26.20;;
77016;SDS011;65949;53.132;17.930;2024-03-02T00:41:05;55.70;;;25.40;;
77016;SDS011;65949;53.132;17.930;2024-03-02T00:46:22;61.30;;;27.80;;
77016;SDS011;65949;53.132;17.930;2024-03-02T00:48:57;61.80;;;27.90;;
77016;SDS011;65949;53.132;17.930;2024-03-02T00:51:25;62.50;;;28.10;;
77016;SDS011;65949;53.132;17.930;2024-03-02T00:53:53;57.80;;;27.00;;
77016;SDS011;65949;53.132;17.930;2024-03-02T00:56:26;60.20;;;27.20;;
77016;SDS011;65949;53.132;17.930;2024-03-02T00:58:53;59.90;;;28.70;;
77016;SDS011;65949;53.132;17.930;2024-03-02T01:01:20;63.00;;;29.00;;
77016;SDS011;65949;53.132;17.930;2024-03-02T01:03:46;58.20;;;26.30;;
77016;SDS011;65949;53.132;17.930;2024-03-02T01:06:13;57.80;;;26.10;;
77016;SDS011;65949;53.132;17.930;2024-03-02T01:08:40;60.40;;;26.80;;
77016;SDS011;65949;53.132;17.930;2024-03-02T01:11:07;56.10;;;24.70;;
77016;SDS011;65949;53.132;17.930;2024-03-02T01:13:33;62.90;;;28.30;;
77016;SDS011;65949;53.132;17.930;2024-03-02T01:16:00;60.20;;;26.80;;
77016;SDS011;65949;53.132;17.930;2024-03-02T01:18:27;63.40;;;28.40;;
77016;SDS011;65949;53.132;17.930;2024-03-02T01:20:54;59.10;;;26.50;;
77016;SDS011;65949;53.132;17.930;2024-03-02T01:23:24;60.60;;;27.80;;
77016;SDS011;65949;53.132;17.930;2024-03-02T01:25:51;66.90;;;26.50;;
77016;SDS011;65949;53.132;17.930;2024-03-02T01:28:19;57.40;;;25.30;;
77016;SDS011;65949;53.132;17.930;2024-03-02T01:30:47;61.70;;;27.70;;
77016;SDS011;65949;53.132;17.930;2024-03-02T01:33:14;58.00;;;26.10;;
77016;SDS011;65949;53.132;17.930;2024-03-02T01:35:41;62.70;;;28.40;;
77016;SDS011;65949;53.132;17.930;2024-03-02T01:38:08;59.00;;;28.40;;
77016;SDS011;65949;53.132;17.930;2024-03-02T01:40:35;64.60;;;28.30;;
77016;SDS011;65949;53.132;17.930;2024-03-02T01:43:04;62.90;;;27.10;;
77016;SDS011;65949;53.132;17.930;2024-03-02T01:45:31;55.50;;;24.80;;
77016;SDS011;65949;53.132;17.930;2024-03-02T01:47:58;62.50;;;28.00;;
77016;SDS011;65949;53.132;17.930;2024-03-02T01:50:29;63.30;;;26.90;;
77016;SDS011;65949;53.132;17.930;2024-03-02T01:52:58;56.10;;;26.10;;
77016;SDS011;65949;53.132;17.930;2024-03-02T01:55:26;56.00;;;26.90;;
77016;SDS011;65949;53.132;17.930;2024-03-02T01:57:55;61.20;;;27.10;;
77016;SDS011;65949;53.132;17.930;2024-03-02T02:00:22;57.60;;;25.60;;
77016;SDS011;65949;53.132;17.930;2024-03-02T02:02:50;60.40;;;25.60;;
77016;SDS011;65949;53.132;17.930;2024-03-02T02:05:18;56.50;;;26.30;;
77016;SDS011;65949;53.132;17.930;2024-03-02T02:07:45;54.70;;;25.50;;
77016;SDS011;65949;53.132;17.930;2024-03-02T02:10:12;61.70;;;27.60;;
77016;SDS011;65949;53.132;17.930;2024-03-02T02:12:39;58.40;;;26.50;;
77016;SDS011;65949;53.132;17.930;2024-03-02T02:15:27;60.10;;;27.40;;
77016;SDS011;65949;53.132;17.930;2024-03-02T02:17:57;60.20;;;25.40;;
77016;SDS011;65949;53.132;17.930;2024-03-02T02:20:25;58.40;;;25.90;;
77016;SDS011;65949;53.132;17.930;2024-03-02T02:22:59;55.60;;;25.60;;
77016;SDS011;65949;53.132;17.930;2024-03-02T02:25:27;61.40;;;27.80;;
77016;SDS011;65949;53.132;17.930;2024-03-02T02:27:55;53.80;;;25.70;;
77016;SDS011;65949;53.132;17.930;2024-03-02T02:30:23;57.70;;;27.20;;
77016;SDS011;65949;53.132;17.930;2024-03-02T02:32:52;59.80;;;27.00;;
77016;SDS011;65949;53.132;17.930;2024-03-02T02:35:20;61.70;;;26.80;;
77016;SDS011;65949;53.132;17.930;2024-03-02T02:37:46;62.20;;;25.70;;
77016;SDS011;65949;53.132;17.930;2024-03-02T02:40:15;58.30;;;26.20;;
77016;SDS011;65949;53.132;17.930;2024-03-02T02:42:42;57.90;;;23.80;;
77016;SDS011;65949;53.132;17.930;2024-03-02T02:45:09;53.50;;;24.80;;
77016;SDS011;65949;53.132;17.930;2024-03-02T02:47:37;56.90;;;24.90;;
77016;SDS011;65949;53.132;17.930;2024-03-02T02:50:04;59.70;;;25.50;;
77016;SDS011;65949;53.132;17.930;2024-03-02T02:52:36;52.60;;;25.30;;
77016;SDS011;65949;53.132;17.930;2024-03-02T02:55:07;56.30;;;25.30;;
77016;SDS011;65949;53.132;17.930;2024-03-02T02:57:35;57.20;;;24.60;;
77016;SDS011;65949;53.132;17.930;2024-03-02T03:00:07;55.60;;;24.60;;
77016;SDS011;65949;53.132;17.930;2024-03-02T03:02:42;56.50;;;24.80;;
77016;SDS011;65949;53.132;17.930;2024-03-02T03:05:10;52.00;;;25.00;;
77016;SDS011;65949;53.132;17.930;2024-03-02T03:07:42;52.10;;;24.40;;
77016;SDS011;65949;53.132;17.930;2024-03-02T03:10:10;52.90;;;23.80;;
77016;SDS011;65949;53.132;17.930;2024-03-02T03:12:37;53.70;;;23.50;;
77016;SDS011;65949;53.132;17.930;2024-03-02T03:15:04;55.00;;;24.20;;
77016;SDS011;65949;53.132;17.930;2024-03-02T03:17:33;52.50;;;24.30;;
77016;SDS011;65949;53.132;17.930;2024-03-02T03:20:00;56.70;;;27.00;;
77016;SDS011;65949;53.132;17.930;2024-03-02T03:22:27;50.30;;;23.20;;
77016;SDS011;65949;53.132;17.930;2024-03-02T03:24:54;51.30;;;22.90;;
77016;SDS011;65949;53.132;17.930;2024-03-02T03:27:21;53.70;;;23.90;;
77016;SDS011;65949;53.132;17.930;2024-03-02T03:29:48;52.70;;;25.30;;
77016;SDS011;65949;53.132;17.930;2024-03-02T03:32:14;40.60;;;18.10;;
77016;SDS011;65949;53.132;17.930;2024-03-02T03:34:41;51.50;;;23.10;;
77016;SDS011;65949;53.132;17.930;2024-03-02T03:37:07;53.40;;;24.70;;
77016;SDS011;65949;53.132;17.930;2024-03-02T03:39:34;52.00;;;23.90;;
77016;SDS011;65949;53.132;17.930;2024-03-02T03:42:04;52.00;;;22.40;;
77016;SDS011;65949;53.132;17.930;2024-03-02T03:44:31;47.20;;;23.40;;
77016;SDS011;65949;53.132;17.930;2024-03-02T03:46:58;47.20;;;22.00;;
77016;SDS011;65949;53.132;17.930;2024-03-02T03:49:25;44.10;;;21.10;;
77016;SDS011;65949;53.132;17.930;2024-03-02T03:51:51;45.50;;;21.60;;
77016;SDS011;65949;53.132;17.930;2024-03-02T03:54:18;40.90;;;19.70;;
77016;SDS011;65949;53.132;17.930;2024-03-02T03:56:45;43.10;;;20.50;;
77016;SDS011;65949;53.132;17.930;2024-03-02T03:59:12;43.80;;;22.00;;
77016;SDS011;65949;53.132;17.930;2024-03-02T04:01:39;43.90;;;20.50;;
77016;SDS011;65949;53.132;17.930;2024-03-02T04:04:05;40.40;;;20.30;;
77016;SDS011;65949;53.132;17.930;2024-03-02T04:06:33;45.30;;;23.20;;
77016;SDS011;65949;53.132;17.930;2024-03-02T04:08:59;32.50;;;15.00;;
77016;SDS011;65949;53.132;17.930;2024-03-02T04:11:26;42.70;;;19.80;;
77016;SDS011;65949;53.132;17.930;2024-03-02T04:13:53;39.90;;;20.70;;
77016;SDS011;65949;53.132;17.930;2024-03-02T04:16:19;40.20;;;19.50;;
77016;SDS011;65949;53.132;17.930;2024-03-02T04:18:46;38.80;;;19.10;;
77016;SDS011;65949;53.132;17.930;2024-03-02T04:21:13;39.40;;;19.90;;
77016;SDS011;65949;53.132;17.930;2024-03-02T04:23:39;43.40;;;20.60;;
77016;SDS011;65949;53.132;17.930;2024-03-02T04:26:06;40.90;;;20.30;;
77016;SDS011;65949;53.132;17.930;2024-03-02T04:28:33;37.60;;;18.00;;
77016;SDS011;65949;53.132;17.930;2024-03-02T04:30:59;38.50;;;19.30;;
77016;SDS011;65949;53.132;17.930;2024-03-02T04:33:26;42.90;;;21.20;;
77016;SDS011;65949;53.132;17.930;2024-03-02T04:35:53;40.30;;;19.60;;
77016;SDS011;65949;53.132;17.930;2024-03-02T04:38:19;40.60;;;20.40;;
77016;SDS011;65949;53.132;17.930;2024-03-02T04:40:46;38.00;;;18.80;;
77016;SDS011;65949;53.132;17.930;2024-03-02T04:43:13;38.00;;;19.90;;
77016;SDS011;65949;53.132;17.930;2024-03-02T04:45:42;42.40;;;19.70;;
77016;SDS011;65949;53.132;17.930;2024-03-02T04:48:09;38.90;;;20.10;;
77016;SDS011;65949;53.132;17.930;2024-03-02T04:50:36;40.90;;;20.20;;
77016;SDS011;65949;53.132;17.930;2024-03-02T04:53:03;36.70;;;19.20;;
77016;SDS011;65949;53.132;17.930;2024-03-02T04:55:30;40.80;;;20.50;;
77016;SDS011;65949;53.132;17.930;2024-03-02T04:58:05;41.50;;;19.90;;
77016;SDS011;65949;53.132;17.930;2024-03-02T05:00:33;39.30;;;19.50;;
77016;SDS011;65949;53.132;17.930;2024-03-02T05:03:00;36.60;;;17.50;;
77016;SDS011;65949;53.132;17.930;2024-03-02T05:05:28;37.90;;;20.50;;
77016;SDS011;65949;53.132;17.930;2024-03-02T05:07:54;39.60;;;21.10;;
77016;SDS011;65949;53.132;17.930;2024-03-02T05:10:21;35.20;;;16.70;;
77016;SDS011;65949;53.132;17.930;2024-03-02T05:12:48;36.10;;;16.70;;
77016;SDS011;65949;53.132;17.930;2024-03-02T05:15:25;35.70;;;18.30;;
77016;SDS011;65949;53.132;17.930;2024-03-02T05:17:52;38.20;;;20.10;;
77016;SDS011;65949;53.132;17.930;2024-03-02T05:20:20;37.60;;;19.50;;
77016;SDS011;65949;53.132;17.930;2024-03-02T05:22:47;37.70;;;19.00;;
77016;SDS011;65949;53.132;17.930;2024-03-02T05:25:15;43.00;;;21.10;;
77016;SDS011;65949;53.132;17.930;2024-03-02T05:27:41;55.90;;;35.50;;
77016;SDS011;65949;53.132;17.930;2024-03-02T05:30:09;54.30;;;32.90;;
77016;SDS011;65949;53.132;17.930;2024-03-02T05:32:36;42.40;;;21.90;;
77016;SDS011;65949;53.132;17.930;2024-03-02T05:35:04;47.90;;;28.20;;
77016;SDS011;65949;53.132;17.930;2024-03-02T05:37:31;41.10;;;21.50;;
77016;SDS011;65949;53.132;17.930;2024-03-02T05:39:58;38.00;;;21.20;;
77016;SDS011;65949;53.132;17.930;2024-03-02T05:42:25;36.80;;;19.80;;
77016;SDS011;65949;53.132;17.930;2024-03-02T05:44:53;41.10;;;21.50;;
77016;SDS011;65949;53.132;17.930;2024-03-02T05:47:20;38.60;;;20.00;;
77016;SDS011;65949;53.132;17.930;2024-03-02T05:49:47;40.40;;;20.30;;
77016;SDS011;65949;53.132;17.930;2024-03-02T05:52:13;36.50;;;19.60;;
77016;SDS011;65949;53.132;17.930;2024-03-02T05:54:40;33.90;;;17.90;;
77016;SDS011;65949;53.132;17.930;2024-03-02T05:57:07;37.50;;;19.30;;
77016;SDS011;65949;53.132;17.930;2024-03-02T06:00:03;35.90;;;18.80;;
77016;SDS011;65949;53.132;17.930;2024-03-02T06:02:39;38.00;;;17.60;;
77016;SDS011;65949;53.132;17.930;2024-03-02T06:05:07;38.60;;;19.10;;
77016;SDS011;65949;53.132;17.930;2024-03-02T06:07:34;40.60;;;20.70;;
77016;SDS011;65949;53.132;17.930;2024-03-02T06:10:01;42.20;;;21.20;;
77016;SDS011;65949;53.132;17.930;2024-03-02T06:12:27;40.00;;;20.60;;
77016;SDS011;65949;53.132;17.930;2024-03-02T06:14:54;38.00;;;19.60;;
77016;SDS011;65949;53.132;17.930;2024-03-02T06:17:21;40.20;;;21.30;;
77016;SDS011;65949;53.132;17.930;2024-03-02T06:19:48;37.70;;;21.00;;
77016;SDS011;65949;53.132;17.930;2024-03-02T06:22:15;43.10;;;19.80;;
77016;SDS011;65949;53.132;17.930;2024-03-02T06:24:41;39.90;;;20.70;;
77016;SDS011;65949;53.132;17.930;2024-03-02T06:27:08;37.30;;;19.60;;
77016;SDS011;65949;53.132;17.930;2024-03-02T06:29:35;39.70;;;19.90;;
77016;SDS011;65949;53.132;17.930;2024-03-02T06:32:01;38.70;;;19.50;;
77016;SDS011;65949;53.132;17.930;2024-03-02T06:34:28;35.90;;;19.80;;
77016;SDS011;65949;53.132;17.930;2024-03-02T06:36:55;41.60;;;21.90;;
77016;SDS011;65949;53.132;17.930;2024-03-02T06:39:22;42.00;;;21.30;;
77016;SDS011;65949;53.132;17.930;2024-03-02T06:41:48;38.60;;;20.40;;
77016;SDS011;65949;53.132;17.930;2024-03-02T06:44:15;38.50;;;20.20;;
77016;SDS011;65949;53.132;17.930;2024-03-02T06:46:42;41.30;;;22.40;;
77016;SDS011;65949;53.132;17.930;2024-03-02T06:49:08;40.20;;;20.90;;
77016;SDS011;65949;53.132;17.930;2024-03-02T06:51:36;43.70;;;21.90;;
77016;SDS011;65949;53.132;17.930;2024-03-02T06:54:03;42.80;;;20.90;;
77016;SDS011;65949;53.132;17.930;2024-03-02T06:56:30;51.10;;;27.70;;
77016;SDS011;65949;53.132;17.930;2024-03-02T06:58:57;52.70;;;29.90;;
77016;SDS011;65949;53.132;17.930;2024-03-02T07:01:23;41.80;;;25.20;;
77016;SDS011;65949;53.132;17.930;2024-03-02T07:03:52;41.10;;;24.80;;
77016;SDS011;65949;53.132;17.930;2024-03-02T07:06:19;39.40;;;22.70;;
77016;SDS011;65949;53.132;17.930;2024-03-02T07:08:46;40.20;;;22.10;;
77016;SDS011;65949;53.132;17.930;2024-03-02T07:11:12;39.90;;;21.20;;
77016;SDS011;65949;53.132;17.930;2024-03-02T07:13:39;39.60;;;21.50;;
77016;SDS011;65949;53.132;17.930;2024-03-02T07:16:06;39.20;;;21.70;;
77016;SDS011;65949;53.132;17.930;2024-03-02T07:18:52;39.60;;;21.80;;
77016;SDS011;65949;53.132;17.930;2024-03-02T07:21:21;42.50;;;21.30;;
77016;SDS011;65949;53.132;17.930;2024-03-02T07:23:48;42.20;;;22.80;;
77016;SDS011;65949;53.132;17.930;2024-03-02T07:26:15;43.20;;;22.70;;
77016;SDS011;65949;53.132;17.930;2024-03-02T07:28:42;42.30;;;22.30;;
77016;SDS011;65949;53.132;17.930;2024-03-02T07:31:10;40.00;;;20.10;;
77016;SDS011;65949;53.132;17.930;2024-03-02T07:33:37;43.50;;;22.10;;
77016;SDS011;65949;53.132;17.930;2024-03-02T07:36:03;42.30;;;22.20;;
77016;SDS011;65949;53.132;17.930;2024-03-02T07:38:31;39.10;;;19.40;;
77016;SDS011;65949;53.132;17.930;2024-03-02T07:41:00;41.10;;;22.30;;
77016;SDS011;65949;53.132;17.930;2024-03-02T07:43:27;38.50;;;19.70;;
77016;SDS011;65949;53.132;17.930;2024-03-02T07:45:54;41.80;;;22.10;;
77016;SDS011;65949;53.132;17.930;2024-03-02T07:48:21;42.20;;;22.90;;
77016;SDS011;65949;53.132;17.930;2024-03-02T07:50:48;36.90;;;18.30;;
77016;SDS011;65949;53.132;17.930;2024-03-02T07:53:15;41.30;;;18.90;;
77016;SDS011;65949;53.132;17.930;2024-03-02T07:55:41;41.90;;;20.90;;
77016;SDS011;65949;53.132;17.930;2024-03-02T07:58:08;43.90;;;20.50;;
77016;SDS011;65949;53.132;17.930;2024-03-02T08:00:35;40.80;;;21.10;;
77016;SDS011;65949;53.132;17.930;2024-03-02T08:03:02;39.50;;;21.00;;
77016;SDS011;65949;53.132;17.930;2024-03-02T08:05:29;41.90;;;21.30;;
77016;SDS011;65949;53.132;17.930;2024-03-02T08:07:56;38.20;;;19.60;;
77016;SDS011;65949;53.132;17.930;2024-03-02T08:10:23;38.10;;;19.00;;
77016;SDS011;65949;53.132;17.930;2024-03-02T08:12:50;36.40;;;19.20;;
77016;SDS011;65949;53.132;17.930;2024-03-02T08:15:16;40.80;;;20.10;;
77016;SDS011;65949;53.132;17.930;2024-03-02T08:17:43;32.60;;;17.70;;
77016;SDS011;65949;53.132;17.930;2024-03-02T08:20:15;34.90;;;18.80;;
77016;SDS011;65949;53.132;17.930;2024-03-02T08:22:42;33.30;;;18.30;;
77016;SDS011;65949;53.132;17.930;2024-03-02T08:25:09;34.70;;;19.30;;
77016;SDS011;65949;53.132;17.930;2024-03-02T08:27:36;35.30;;;17.00;;
77016;SDS011;65949;53.132;17.930;2024-03-02T08:30:03;37.40;;;19.90;;
77016;SDS011;65949;53.132;17.930;2024-03-02T08:32:32;33.00;;;18.50;;
77016;SDS011;65949;53.132;17.930;2024-03-02T08:34:59;33.70;;;18.30;;
77016;SDS011;65949;53.132;17.930;2024-03-02T08:37:26;28.10;;;16.90;;
77016;SDS011;65949;53.132;17.930;2024-03-02T08:39:53;31.80;;;17.70;;
77016;SDS011;65949;53.132;17.930;2024-03-02T08:42:19;31.60;;;16.80;;
77016;SDS011;65949;53.132;17.930;2024-03-02T08:44:46;30.80;;;17.10;;
77016;SDS011;65949;53.132;17.930;2024-03-02T08:47:13;29.20;;;17.00;;
77016;SDS011;65949;53.132;17.930;2024-03-02T08:49:40;29.40;;;15.60;;
77016;SDS011;65949;53.132;17.930;2024-03-02T08:52:06;29.20;;;17.00;;
77016;SDS011;65949;53.132;17.930;2024-03-02T08:54:33;30.60;;;16.70;;
77016;SDS011;65949;53.132;17.930;2024-03-02T08:57:02;31.10;;;16.90;;
77016;SDS011;65949;53.132;17.930;2024-03-02T08:59:29;31.90;;;16.60;;
77016;SDS011;65949;53.132;17.930;2024-03-02T09:01:57;29.00;;;16.30;;
77016;SDS011;65949;53.132;17.930;2024-03-02T09:04:24;29.10;;;17.70;;
77016;SDS011;65949;53.132;17.930;2024-03-02T09:06:50;29.00;;;15.80;;
77016;SDS011;65949;53.132;17.930;2024-03-02T09:09:17;31.30;;;16.90;;
77016;SDS011;65949;53.132;17.930;2024-03-02T09:11:45;27.40;;;16.00;;
77016;SDS011;65949;53.132;17.930;2024-03-02T09:14:12;31.10;;;18.20;;
77016;SDS011;65949;53.132;17.930;2024-03-02T09:16:41;31.40;;;16.70;;
77016;SDS011;65949;53.132;17.930;2024-03-02T09:19:08;32.60;;;19.20;;
77016;SDS011;65949;53.132;17.930;2024-03-02T09:21:36;30.80;;;16.80;;
77016;SDS011;65949;53.132;17.930;2024-03-02T09:24:03;30.60;;;17.80;;
77016;SDS011;65949;53.132;17.930;2024-03-02T09:26:30;30.50;;;17.10;;
77016;SDS011;65949;53.132;17.930;2024-03-02T09:28:58;29.60;;;16.40;;
77016;SDS011;65949;53.132;17.930;2024-03-02T09:31:24;35.00;;;19.10;;
77016;SDS011;65949;53.132;17.930;2024-03-02T09:33:51;32.30;;;18.10;;
77016;SDS011;65949;53.132;17.930;2024-03-02T09:36:21;33.80;;;19.60;;
77016;SDS011;65949;53.132;17.930;2024-03-02T09:38:49;35.20;;;19.30;;
77016;SDS011;65949;53.132;17.930;2024-03-02T09:41:16;29.60;;;15.70;;
77016;SDS011;65949;53.132;17.930;2024-03-02T09:43:43;29.50;;;16.80;;
77016;SDS011;65949;53.132;17.930;2024-03-02T09:46:10;31.50;;;16.80;;
77016;SDS011;65949;53.132;17.930;2024-03-02T09:48:37;33.20;;;17.90;;
77016;SDS011;65949;53.132;17.930;2024-03-02T09:51:04;42.50;;;20.30;;
77016;SDS011;65949;53.132;17.930;2024-03-02T09:53:32;31.90;;;17.80;;
77016;SDS011;65949;53.132;17.930;2024-03-02T09:56:00;40.20;;;19.50;;
77016;SDS011;65949;53.132;17.930;2024-03-02T09:58:27;38.30;;;17.80;;
77016;SDS011;65949;53.132;17.930;2024-03-02T10:00:54;40.70;;;19.50;;
77016;SDS011;65949;53.132;17.930;2024-03-02T10:03:20;37.80;;;19.10;;
77016;SDS011;65949;53.132;17.930;2024-03-02T10:05:50;38.40;;;17.90;;
77016;SDS011;65949;53.132;17.930;2024-03-02T10:08:18;31.10;;;15.90;;
77016;SDS011;65949;53.132;17.930;2024-03-02T10:10:44;32.10;;;16.70;;
77016;SDS011;65949;53.132;17.930;2024-03-02T10:13:12;29.40;;;16.80;;
77016;SDS011;65949;53.132;17.930;2024-03-02T10:15:40;33.30;;;17.10;;
77016;SDS011;65949;53.132;17.930;2024-03-02T10:18:08;31.40;;;16.50;;
77016;SDS011;65949;53.132;17.930;2024-03-02T10:20:40;30.30;;;16.40;;
77016;SDS011;65949;53.132;17.930;2024-03-02T10:23:10;28.60;;;16.60;;
77016;SDS011;65949;53.132;17.930;2024-03-02T10:25:39;31.50;;;16.50;;
77016;SDS011;65949;53.132;17.930;2024-03-02T10:28:06;28.10;;;17.00;;
77016;SDS011;65949;53.132;17.930;2024-03-02T10:30:33;26.90;;;15.20;;
77016;SDS011;65949;53.132;17.930;2024-03-02T10:33:01;29.60;;;16.10;;
77016;SDS011;65949;53.132;17.930;2024-03-02T10:35:29;25.30;;;14.50;;
77016;SDS011;65949;53.132;17.930;2024-03-02T10:37:59;29.50;;;14.60;;
77016;SDS011;65949;53.132;17.930;2024-03-02T10:40:26;26.30;;;13.50;;
77016;SDS011;65949;53.132;17.930;2024-03-02T10:42:53;27.10;;;15.50;;
77016;SDS011;65949;53.132;17.930;2024-03-02T10:45:21;31.40;;;16.90;;
77016;SDS011;65949;53.132;17.930;2024-03-02T10:47:50;33.10;;;18.00;;
77016;SDS011;65949;53.132;17.930;2024-03-02T10:50:17;29.00;;;16.80;;
77016;SDS011;65949;53.132;17.930;2024-03-02T10:52:44;25.30;;;13.80;;
77016;SDS011;65949;53.132;17.930;2024-03-02T10:55:11;31.50;;;16.20;;
77016;SDS011;65949;53.132;17.930;2024-03-02T10:57:44;31.70;;;16.00;;
77016;SDS011;65949;53.132;17.930;2024-03-02T11:00:24;33.90;;;17.60;;
77016;SDS011;65949;53.132;17.930;2024-03-02T11:02:56;28.90;;;16.10;;
77016;SDS011;65949;53.132;17.930;2024-03-02T11:05:29;28.90;;;17.70;;
77016;SDS011;65949;53.132;17.930;2024-03-02T11:08:01;28.30;;;16.70;;
77016;SDS011;65949;53.132;17.930;2024-03-02T11:10:37;27.60;;;16.40;;
77016;SDS011;65949;53.132;17.930;2024-03-02T11:13:11;37.20;;;19.10;;
77016;SDS011;65949;53.132;17.930;2024-03-02T11:15:43;36.20;;;17.60;;
77016;SDS011;65949;53.132;17.930;2024-03-02T11:18:11;34.00;;;18.90;;
77016;SDS011;65949;53.132;17.930;2024-03-02T11:20:39;31.20;;;16.70;;
77016;SDS011;65949;53.132;17.930;2024-03-02T11:23:08;30.50;;;18.30;;
77016;SDS011;65949;53.132;17.930;2024-03-02T11:25:35;31.80;;;16.80;;
77016;SDS011;65949;53.132;17.930;2024-03-02T11:28:03;32.50;;;18.10;;
77016;SDS011;65949;53.132;17.930;2024-03-02T11:33:04;33.40;;;18.70;;
77016;SDS011;65949;53.132;17.930;2024-03-02T11:35:37;33.50;;;17.70;;
77016;SDS011;65949;53.132;17.930;2024-03-02T11:38:09;33.00;;;17.50;;
77016;SDS011;65949;53.132;17.930;2024-03-02T11:40:38;30.30;;;17.60;;
77016;SDS011;65949;53.132;17.930;2024-03-02T11:43:06;31.70;;;17.80;;
77016;SDS011;65949;53.132;17.930;2024-03-02T11:45:37;31.00;;;16.60;;
77016;SDS011;65949;53.132;17.930;2024-03-02T11:48:10;33.50;;;18.60;;
77016;SDS011;65949;53.132;17.930;2024-03-02T11:50:40;32.70;;;17.80;;
77016;SDS011;65949;53.132;17.930;2024-03-02T11:53:15;32.10;;;18.20;;
77016;SDS011;65949;53.132;17.930;2024-03-02T11:55:43;32.70;;;19.60;;
77016;SDS011;65949;53.132;17.930;2024-03-02T11:58:13;28.90;;;17.60;;
77016;SDS011;65949;53.132;17.930;2024-03-02T12:00:40;33.30;;;17.00;;
77016;SDS011;65949;53.132;17.930;2024-03-02T12:03:07;29.50;;;17.90;;
77016;SDS011;65949;53.132;17.930;2024-03-02T12:05:36;32.60;;;18.40;;
77016;SDS011;65949;53.132;17.930;2024-03-02T12:08:06;29.70;;;18.10;;
77016;SDS011;65949;53.132;17.930;2024-03-02T12:10:34;35.50;;;18.90;;
77016;SDS011;65949;53.132;17.930;2024-03-02T12:13:03;32.60;;;18.30;;
77016;SDS011;65949;53.132;17.930;2024-03-02T12:15:38;28.10;;;17.00;;
77016;SDS011;65949;53.132;17.930;2024-03-02T12:18:06;30.90;;;18.40;;
77016;SDS011;65949;53.132;17.930;2024-03-02T12:20:33;34.30;;;20.60;;
77016;SDS011;65949;53.132;17.930;2024-03-02T12:23:01;33.20;;;17.70;;
77016;SDS011;65949;53.132;17.930;2024-03-02T12:25:31;31.70;;;17.80;;
77016;SDS011;65949;53.132;17.930;2024-03-02T12:28:00;31.60;;;18.30;;
77016;SDS011;65949;53.132;17.930;2024-03-02T12:30:30;31.00;;;18.20;;
77016;SDS011;65949;53.132;17.930;2024-03-02T12:33:01;32.20;;;19.90;;
77016;SDS011;65949;53.132;17.930;2024-03-02T12:35:28;34.30;;;19.60;;
77016;SDS011;65949;53.132;17.930;2024-03-02T12:37:55;33.30;;;19.30;;
77016;SDS011;65949;53.132;17.930;2024-03-02T12:40:21;31.50;;;19.00;;
77016;SDS011;65949;53.132;17.930;2024-03-02T12:42:49;33.50;;;19.80;;
77016;SDS011;65949;53.132;17.930;2024-03-02T12:45:16;37.10;;;21.00;;
77016;SDS011;65949;53.132;17.930;2024-03-02T12:47:50;35.90;;;19.80;;
77016;SDS011;65949;53.132;17.930;2024-03-02T12:50:20;32.60;;;17.80;;
77016;SDS011;65949;53.132;17.930;2024-03-02T12:52:51;33.30;;;19.40;;
77016;SDS011;65949;53.132;17.930;2024-03-02T12:55:20;34.70;;;18.80;;
77016;SDS011;65949;53.132;17.930;2024-03-02T12:57:49;29.10;;;16.00;;
77016;SDS011;65949;53.132;17.930;2024-03-02T13:00:18;33.20;;;19.70;;
77016;SDS011;65949;53.132;17.930;2024-03-02T13:02:46;31.60;;;19.00;;
77016;SDS011;65949;53.132;17.930;2024-03-02T13:05:15;33.30;;;18.60;;
77016;SDS011;65949;53.132;17.930;2024-03-02T13:07:42;31.20;;;18.60;;
77016;SDS011;65949;53.132;17.930;2024-03-02T13:10:09;31.90;;;19.00;;
77016;SDS011;65949;53.132;17.930;2024-03-02T13:12:36;32.90;;;19.80;;
77016;SDS011;65949;53.132;17.930;2024-03-02T13:15:03;33.90;;;18.50;;
77016;SDS011;65949;53.132;17.930;2024-03-02T13:17:33;33.00;;;19.50;;
77016;SDS011;65949;53.132;17.930;2024-03-02T13:20:01;35.30;;;20.70;;
77016;SDS011;65949;53.132;17.930;2024-03-02T13:22:30;36.40;;;20.30;;
77016;SDS011;65949;53.132;17.930;2024-03-02T13:24:57;33.50;;;20.60;;
77016;SDS011;65949;53.132;17.930;2024-03-02T13:27:24;35.30;;;18.70;;
77016;SDS011;65949;53.132;17.930;2024-03-02T13:29:50;33.00;;;19.60;;
77016;SDS011;65949;53.132;17.930;2024-03-02T13:32:17;33.30;;;20.60;;
77016;SDS011;65949;53.132;17.930;2024-03-02T13:34:47;33.90;;;18.90;;
77016;SDS011;65949;53.132;17.930;2024-03-02T13:37:13;32.70;;;18.50;;
77016;SDS011;65949;53.132;17.930;2024-03-02T13:39:40;35.30;;;19.70;;
77016;SDS011;65949;53.132;17.930;2024-03-02T13:42:09;34.70;;;19.70;;
77016;SDS011;65949;53.132;17.930;2024-03-02T13:44:37;31.90;;;18.60;;
77016;SDS011;65949;53.132;17.930;2024-03-02T13:47:04;36.00;;;19.90;;
77016;SDS011;65949;53.132;17.930;2024-03-02T13:49:31;37.00;;;18.90;;
77016;SDS011;65949;53.132;17.930;2024-03-02T13:52:03;32.50;;;18.40;;
77016;SDS011;65949;53.132;17.930;2024-03-02T13:54:36;35.90;;;20.40;;
77016;SDS011;65949;53.132;17.930;2024-03-02T13:57:04;39.00;;;21.80;;
77016;SDS011;65949;53.132;17.930;2024-03-02T13:59:32;32.80;;;19.20;;
77016;SDS011;65949;53.132;17.930;2024-03-02T14:02:00;35.60;;;19.30;;
77016;SDS011;65949;53.132;17.930;2024-03-02T14:04:31;44.70;;;23.70;;
77016;SDS011;65949;53.132;17.930;2024-03-02T14:06:59;38.60;;;22.10;;
77016;SDS011;65949;53.132;17.930;2024-03-02T14:09:27;37.00;;;21.20;;
77016;SDS011;65949;53.132;17.930;2024-03-02T14:11:54;34.50;;;21.00;;
77016;SDS011;65949;53.132;17.930;2024-03-02T14:14:22;35.70;;;20.20;;
77016;SDS011;65949;53.132;17.930;2024-03-02T14:16:49;40.30;;;21.10;;
77016;SDS011;65949;53.132;17.930;2024-03-02T14:19:16;38.40;;;21.60;;
77016;SDS011;65949;53.132;17.930;2024-03-02T14:21:43;36.00;;;21.50;;